Green Castle, Iowa
Current Conditions -  °F | °C
As of 10:55 PM on Saturday 22 Nov 2014 (Local Time) from KTNU Reporting Station
Overcast Overcast  
Wind Chill: 54°   Ceiling: 1500
Heat Index: 54°   Visibility: 10mi
Dew Point: 50°   Wind: 15mph
Humidity: 88%   Direction: 200°SSW
Pressure: 29.67"   Gusts: NA
Location:  41.6475°N, 93.2926°W
Report Text: KTNU 230455Z AUTO 20013KT 10SM OVC015 12/10 A2967 RMK AO2
Loading
Personal Weather Stations






























Interactive Weather Map New forecast layout! Learn more

10-Day Weather Forecast

Advertisements
Track Severe Weather on mobile